Time;durP1;ratioP1;P1;durP2;ratioP2;P2;SDS_P1;SDS_P2;PMS_P1;PMS_P2;Temp;Humidity;BMP_temperature;BMP_pressure;BME280_temperature;BME280_humidity;BME280_pressure;Samples;Min_cycle;Max_cycle;Signal;HPM_P1;HPM_P2
2023/02/05 00:00:22;;;;;;;8.18;6.30;;;;;;;4.57;100.00;102508.84;5041448;28;20243;-75
2023/02/05 00:02:49;;;;;;;9.65;6.20;;;;;;;4.54;100.00;102505.22;5035977;28;20739;-77
2023/02/05 00:05:17;;;;;;;12.80;6.30;;;;;;;4.56;100.00;102509.69;5036393;28;20224;-74
2023/02/05 00:07:45;;;;;;;9.10;6.68;;;;;;;4.55;100.00;102510.59;5036636;28;20233;-74
2023/02/05 00:10:11;;;;;;;8.27;6.05;;;;;;;4.59;100.00;102508.88;5035638;28;20302;-76
2023/02/05 00:12:38;;;;;;;8.68;6.25;;;;;;;4.65;100.00;102508.03;5036719;28;20215;-74
2023/02/05 00:15:06;;;;;;;8.02;6.20;;;;;;;4.67;100.00;102507.19;5038546;28;20262;-75
2023/02/05 00:17:34;;;;;;;8.40;6.55;;;;;;;4.74;100.00;102495.69;5051032;28;20227;-74
2023/02/05 00:20:01;;;;;;;20.55;13.18;;;;;;;4.72;100.00;102494.78;5051383;28;20205;-74
2023/02/05 00:22:29;;;;;;;14.73;7.43;;;;;;;4.70;100.00;102491.19;5051890;28;20298;-74
2023/02/05 00:24:56;;;;;;;10.50;6.40;;;;;;;4.71;100.00;102487.66;5036716;28;20227;-75
2023/02/05 00:27:22;;;;;;;9.27;6.25;;;;;;;4.74;100.00;102492.13;5035863;28;20212;-72
2023/02/05 00:29:49;;;;;;;11.02;5.97;;;;;;;4.73;100.00;102493.91;5033888;28;20309;-74
2023/02/05 00:32:16;;;;;;;7.93;6.05;;;;;;;4.69;100.00;102492.06;5035562;28;20656;-74
2023/02/05 00:34:42;;;;;;;7.97;6.13;;;;;;;4.74;100.00;102485.00;5035723;28;20347;-73
2023/02/05 00:37:09;;;;;;;10.70;6.68;;;;;;;4.78;100.00;102494.84;5035949;28;20679;-73
2023/02/05 00:39:44;;;;;;;6.65;5.47;;;;;;;4.83;100.00;102486.00;5036195;28;20711;-75
2023/02/05 00:42:12;;;;;;;9.45;6.40;;;;;;;4.88;100.00;102486.97;5063644;28;20223;-73
2023/02/05 00:44:38;;;;;;;11.30;6.38;;;;;;;4.85;100.00;102476.25;5067761;28;20230;-74
2023/02/05 00:47:05;;;;;;;9.32;5.57;;;;;;;4.83;100.00;102473.56;5066286;28;20210;-73
2023/02/05 00:49:32;;;;;;;9.90;5.70;;;;;;;4.73;100.00;102469.88;5065732;28;20622;-75
2023/02/05 00:51:58;;;;;;;7.47;5.10;;;;;;;4.71;100.00;102471.63;5032919;28;20212;-74
2023/02/05 00:54:25;;;;;;;9.30;6.80;;;;;;;4.68;100.00;102474.28;5020276;28;20201;-74
2023/02/05 00:56:51;;;;;;;10.00;6.50;;;;;;;4.57;100.00;102470.59;5017951;28;20619;-74
2023/02/05 00:59:19;;;;;;;7.95;6.40;;;;;;;4.43;100.00;102473.06;5018088;28;20244;-74
2023/02/05 01:01:46;;;;;;;11.18;6.15;;;;;;;4.24;100.00;102468.38;5018488;28;20233;-74
2023/02/05 01:04:12;;;;;;;8.82;5.93;;;;;;;4.21;100.00;102466.56;5018267;28;20228;-73
2023/02/05 01:06:39;;;;;;;11.30;6.07;;;;;;;4.15;100.00;102466.47;5018593;28;20304;-75
2023/02/05 01:09:05;;;;;;;11.98;5.70;;;;;;;4.08;100.00;102470.81;5017627;28;20308;-73
2023/02/05 01:11:32;;;;;;;7.50;5.70;;;;;;;3.97;100.00;102467.09;5018637;28;20229;-74
2023/02/05 01:13:58;;;;;;;11.10;6.18;;;;;;;3.74;100.00;102458.75;5023324;28;20287;-74
2023/02/05 01:16:29;;;;;;;11.48;6.05;;;;;;;3.77;100.00;102445.44;5023205;28;20299;-75
2023/02/05 01:18:55;;;;;;;8.68;5.95;;;;;;;3.74;100.00;102440.97;5023567;28;20194;-75
2023/02/05 01:21:23;;;;;;;8.43;5.97;;;;;;;3.61;100.00;102443.44;5022986;28;20331;-74
2023/02/05 01:23:50;;;;;;;7.18;6.10;;;;;;;3.60;100.00;102439.00;5022551;28;20249;-74
2023/02/05 01:26:16;;;;;;;9.68;7.07;;;;;;;3.62;100.00;102446.13;5027055;28;20211;-74
2023/02/05 01:28:43;;;;;;;8.80;6.13;;;;;;;3.61;100.00;102448.75;5028167;28;20217;-75
2023/02/05 01:31:10;;;;;;;10.50;6.65;;;;;;;3.62;100.00;102450.53;5028168;28;20224;-74
2023/02/05 01:33:38;;;;;;;9.65;6.00;;;;;;;3.60;100.00;102441.66;5027604;28;20257;-73
2023/02/05 01:36:05;;;;;;;13.68;6.20;;;;;;;3.62;100.00;102446.13;5028242;28;20212;-74
2023/02/05 01:38:31;;;;;;;7.90;5.60;;;;;;;3.79;100.00;102450.81;5028565;28;20202;-75
2023/02/05 01:40:59;;;;;;;9.02;6.05;;;;;;;3.74;100.00;102446.31;5030688;28;20236;-74
2023/02/05 01:43:25;;;;;;;7.32;5.40;;;;;;;3.89;100.00;102448.31;5034658;28;20216;-74
2023/02/05 01:46:25;;;;;;;8.52;5.75;;;;;;;3.81;100.00;102444.63;5034331;28;20211;-74
2023/02/05 01:48:57;;;;;;;10.32;6.55;;;;;;;3.91;100.00;102427.91;5021589;28;20223;-74
2023/02/05 01:51:27;;;;;;;10.98;6.03;;;;;;;3.91;100.00;102417.25;5035173;28;20710;-73
2023/02/05 01:53:54;;;;;;;9.95;6.45;;;;;;;3.86;100.00;102416.25;5035910;28;20384;-74
2023/02/05 01:56:25;;;;;;;8.13;6.28;;;;;;;3.89;100.00;102413.66;5032806;28;20264;-74
2023/02/05 01:58:56;;;;;;;10.60;6.35;;;;;;;3.75;100.00;102404.56;5002501;28;20211;-74
2023/02/05 02:01:24;;;;;;;8.60;5.28;;;;;;;3.84;100.00;102403.78;5036103;28;20213;-73
2023/02/05 02:03:54;;;;;;;7.65;5.18;;;;;;;3.90;100.00;102407.44;5036602;28;20248;-73
2023/02/05 02:06:20;;;;;;;7.75;5.60;;;;;;;3.87;100.00;102412.75;5036667;28;20181;-73
2023/02/05 02:08:47;;;;;;;9.20;5.82;;;;;;;4.04;100.00;102404.97;5022442;28;20232;-73
2023/02/05 02:11:17;;;;;;;7.60;5.25;;;;;;;3.97;100.00;102395.97;5021294;28;20227;-73
2023/02/05 02:13:47;;;;;;;9.65;7.38;;;;;;;3.96;100.00;102404.88;5015415;28;20193;-75
2023/02/05 02:16:15;;;;;;;12.38;6.18;;;;;;;4.08;100.00;102408.59;5017242;28;20677;-74
2023/02/05 02:18:42;;;;;;;12.52;6.35;;;;;;;3.97;100.00;102392.44;5018399;28;20210;-74
2023/02/05 02:21:44;;;;;;;10.63;6.50;;;;;;;4.07;100.00;102391.69;5018670;28;20243;-74
2023/02/05 02:24:22;;;;;;;9.30;5.95;;;;;;;4.07;100.00;102391.69;5016708;28;20220;-75
2023/02/05 02:27:05;;;;;;;12.13;6.32;;;;;;;4.07;100.00;102386.38;5014855;28;20557;-74
2023/02/05 02:29:38;;;;;;;8.00;6.13;;;;;;;4.10;100.00;102377.50;5014827;28;20192;-73
2023/02/05 02:32:15;;;;;;;9.90;6.30;;;;;;;4.24;100.00;102380.34;5014897;28;20218;-75
2023/02/05 02:34:47;;;;;;;11.52;6.50;;;;;;;4.15;100.00;102387.34;5027339;28;20272;-74
2023/02/05 02:37:22;;;;;;;8.73;6.18;;;;;;;4.26;100.00;102379.47;5032396;28;20256;-73
2023/02/05 02:39:56;;;;;;;9.85;6.68;;;;;;;4.21;100.00;102370.53;5016861;28;20214;-74
2023/02/05 02:42:27;;;;;;;7.22;5.63;;;;;;;4.21;100.00;102370.53;5017993;28;20192;-74
2023/02/05 02:44:58;;;;;;;9.10;6.10;;;;;;;4.27;100.00;102370.59;5019574;28;20378;-74
2023/02/05 02:47:28;;;;;;;10.77;6.63;;;;;;;4.31;100.00;102369.75;5021123;28;20208;-74
2023/02/05 02:49:58;;;;;;;11.18;6.25;;;;;;;4.27;100.00;102375.91;5020208;28;20506;-73
2023/02/05 02:52:27;;;;;;;8.55;6.65;;;;;;;4.31;100.00;102366.19;5017750;28;20685;-73
2023/02/05 02:54:59;;;;;;;7.90;5.93;;;;;;;4.30;100.00;102365.31;5017939;28;20207;-74
2023/02/05 02:57:28;;;;;;;9.38;6.15;;;;;;;4.23;100.00;102362.53;5020568;28;20706;-73
2023/02/05 03:00:00;;;;;;;7.97;5.60;;;;;;;4.32;100.00;102360.88;5022141;28;20229;-74
2023/02/05 03:02:30;;;;;;;8.43;6.00;;;;;;;4.37;100.00;102356.50;5019597;28;20189;-73
2023/02/05 03:05:01;;;;;;;6.65;5.43;;;;;;;4.37;100.00;102353.81;5018332;28;20299;-74
2023/02/05 03:07:33;;;;;;;11.25;6.15;;;;;;;4.27;100.00;102345.69;5021889;28;20184;-74
2023/02/05 03:10:02;;;;;;;9.93;6.13;;;;;;;4.24;100.00;102349.22;5028775;28;20235;-74
2023/02/05 03:12:29;;;;;;;14.38;6.70;;;;;;;4.29;100.00;102347.50;5030409;28;20254;-74
2023/02/05 03:14:58;;;;;;;8.13;5.70;;;;;;;4.35;100.00;102347.56;5029889;28;20585;-74
2023/02/05 03:17:26;;;;;;;10.60;6.43;;;;;;;4.44;100.00;102348.56;5036786;28;20264;-73
2023/02/05 03:19:59;;;;;;;9.65;5.45;;;;;;;4.32;100.00;102347.53;5039733;28;20178;-74
2023/02/05 03:22:26;;;;;;;7.47;5.63;;;;;;;4.39;100.00;102352.06;5040205;28;20197;-73
2023/02/05 03:24:53;;;;;;;9.57;5.50;;;;;;;4.41;100.00;102340.50;5040048;28;20245;-73
2023/02/05 03:27:21;;;;;;;7.97;5.25;;;;;;;4.43;100.00;102341.41;5039834;28;20257;-73
2023/02/05 03:29:48;;;;;;;7.45;5.65;;;;;;;4.43;100.00;102338.75;5039335;28;20194;-72
2023/02/05 03:32:27;;;;;;;9.80;5.80;;;;;;;4.46;100.00;102334.34;5035132;28;20292;-75
2023/02/05 03:35:07;;;;;;;7.95;5.18;;;;;;;4.49;100.00;102330.81;5022691;28;20633;-73
2023/02/05 03:37:46;;;;;;;8.40;5.15;;;;;;;4.44;100.00;102324.53;5020242;28;20188;-74
2023/02/05 03:40:20;;;;;;;7.53;5.75;;;;;;;4.29;100.00;102318.16;5018808;28;20237;-74
2023/02/05 03:42:54;;;;;;;8.93;5.30;;;;;;;4.34;100.00;102327.13;5019538;28;20216;-73
2023/02/05 03:45:37;;;;;;;7.93;5.50;;;;;;;4.37;100.00;102316.47;5019878;28;20209;-74
2023/02/05 03:48:21;;;;;;;8.38;5.57;;;;;;;4.36;100.00;102325.38;5018461;28;20561;-73
2023/02/05 03:50:54;;;;;;;7.40;5.25;;;;;;;4.35;100.00;102314.66;5017897;28;20247;-74
2023/02/05 03:53:28;;;;;;;7.75;5.35;;;;;;;4.35;100.00;102325.34;5017026;28;20221;-73
2023/02/05 03:56:04;;;;;;;7.30;5.35;;;;;;;4.39;100.00;102327.16;5020569;28;20207;-72
2023/02/05 03:58:36;;;;;;;7.35;5.78;;;;;;;4.34;100.00;102342.22;5024250;28;20232;-75
2023/02/05 04:01:04;;;;;;;7.28;4.90;;;;;;;4.36;100.00;102343.13;5021499;28;20260;-74
2023/02/05 04:03:32;;;;;;;7.35;5.13;;;;;;;4.38;100.00;102344.91;5018836;28;20668;-74
2023/02/05 04:05:58;;;;;;;10.32;5.25;;;;;;;4.43;100.00;102347.66;5018358;28;20230;-74
2023/02/05 04:08:25;;;;;;;17.35;5.50;;;;;;;4.42;100.00;102344.97;5017197;28;20208;-73
2023/02/05 04:10:52;;;;;;;6.95;5.43;;;;;;;4.44;100.00;102341.44;5018677;28;20617;-74
2023/02/05 04:13:18;;;;;;;6.85;5.57;;;;;;;4.50;100.00;102340.59;5018581;28;20212;-74
2023/02/05 04:15:45;;;;;;;7.50;4.88;;;;;;;4.54;100.00;102329.09;5018863;28;20204;-74
2023/02/05 04:18:11;;;;;;;7.78;5.63;;;;;;;4.44;100.00;102340.56;5018324;28;20235;-74
2023/02/05 04:20:39;;;;;;;8.05;5.82;;;;;;;4.47;100.00;102340.59;5018113;28;20578;-73
2023/02/05 04:23:06;;;;;;;7.22;5.55;;;;;;;4.47;100.00;102328.13;5018371;28;20835;-74
2023/02/05 04:25:35;;;;;;;9.88;5.50;;;;;;;4.53;100.00;102327.31;5017106;28;20236;-75
2023/02/05 04:28:02;;;;;;;9.80;5.47;;;;;;;4.42;100.00;102318.31;5016984;28;20638;-75
2023/02/05 04:30:28;;;;;;;8.80;5.10;;;;;;;4.26;100.00;102323.47;5017645;28;20236;-73
2023/02/05 04:32:55;;;;;;;8.40;5.65;;;;;;;4.35;100.00;102331.56;5017323;28;20211;-75
2023/02/05 04:35:21;;;;;;;9.35;5.75;;;;;;;4.39;100.00;102321.84;5017230;28;20201;-75
2023/02/05 04:37:49;;;;;;;6.25;4.90;;;;;;;4.45;100.00;102321.88;5017053;28;20585;-75
2023/02/05 04:40:16;;;;;;;7.85;5.32;;;;;;;4.51;100.00;102327.28;5020595;28;20745;-75
2023/02/05 04:42:44;;;;;;;7.32;5.00;;;;;;;4.48;100.00;102319.25;5020509;28;20547;-74
2023/02/05 04:45:11;;;;;;;8.23;5.43;;;;;;;4.51;100.00;102310.38;5017310;28;20232;-74
2023/02/05 04:47:38;;;;;;;9.35;5.50;;;;;;;4.46;100.00;102299.66;5016759;28;20201;-74
2023/02/05 04:50:05;;;;;;;8.20;5.40;;;;;;;4.21;100.00;102295.84;5018636;28;20233;-74
2023/02/05 04:52:31;;;;;;;19.60;14.68;;;;;;;3.99;100.00;102296.47;5018474;28;20291;-73
2023/02/05 04:54:59;;;;;;;9.13;6.63;;;;;;;4.15;100.00;102296.66;5018286;28;20207;-74
2023/02/05 04:57:26;;;;;;;7.65;5.88;;;;;;;4.23;100.00;102299.44;5018024;28;20209;-74
2023/02/05 04:59:52;;;;;;;6.43;5.50;;;;;;;4.28;100.00;102307.47;5017773;28;20211;-72
2023/02/05 05:02:19;;;;;;;6.82;5.63;;;;;;;4.33;100.00;102306.63;5017369;28;20640;-73
2023/02/05 05:04:45;;;;;;;9.45;5.72;;;;;;;4.46;100.00;102299.66;5019047;28;20229;-74
2023/02/05 05:07:12;;;;;;;7.28;5.15;;;;;;;4.41;100.00;102298.72;5018766;28;20204;-74
2023/02/05 05:09:39;;;;;;;7.00;5.50;;;;;;;4.44;100.00;102306.75;5016326;28;20216;-75
2023/02/05 05:12:07;;;;;;;8.85;5.68;;;;;;;4.47;100.00;102308.56;5019593;28;20205;-74
2023/02/05 05:14:34;;;;;;;8.88;6.40;;;;;;;4.53;100.00;102316.63;5021557;28;20228;-75
2023/02/05 05:17:01;;;;;;;6.55;5.50;;;;;;;4.62;100.00;102321.19;5021984;28;20233;-73
2023/02/05 05:19:27;;;;;;;7.50;5.95;;;;;;;4.43;100.00;102333.41;5016150;28;20208;-74
2023/02/05 05:21:54;;;;;;;9.15;5.90;;;;;;;4.41;100.00;102328.09;5016667;28;20624;-74
2023/02/05 05:24:21;;;;;;;9.40;6.15;;;;;;;4.31;100.00;102319.06;5021373;28;20263;-74
2023/02/05 05:26:47;;;;;;;9.95;6.68;;;;;;;4.33;100.00;102319.09;5023635;28;20215;-74
2023/02/05 05:29:15;;;;;;;10.10;6.43;;;;;;;4.37;100.00;102321.81;5024218;28;20277;-73
2023/02/05 05:31:42;;;;;;;8.90;5.43;;;;;;;4.34;100.00;102323.53;5023772;28;20228;-73
2023/02/05 05:34:08;;;;;;;9.07;5.63;;;;;;;4.45;100.00;102326.31;5023805;28;20204;-74
2023/02/05 05:36:35;;;;;;;7.97;6.25;;;;;;;4.49;100.00;102322.81;5024515;28;20205;-73
2023/02/05 05:44:27;;;;;;;7.47;5.03;;;;;;;4.53;100.00;102319.31;5016690;28;20215;-74
2023/02/05 05:46:54;;;;;;;7.50;5.78;;;;;;;4.49;100.00;102318.38;5017892;28;20216;-73
2023/02/05 05:49:21;;;;;;;7.90;5.75;;;;;;;4.48;100.00;102316.59;5021768;28;20239;-74
2023/02/05 05:51:47;;;;;;;6.68;5.35;;;;;;;4.49;100.00;102304.13;5032907;28;20230;-72
2023/02/05 05:54:14;;;;;;;7.38;6.20;;;;;;;4.39;100.00;102322.72;5035728;28;20208;-74
2023/02/05 05:56:41;;;;;;;8.70;5.30;;;;;;;4.31;100.00;102308.38;5033066;28;20253;-73
2023/02/05 05:59:07;;;;;;;8.25;6.22;;;;;;;4.41;100.00;102313.81;5033666;28;20215;-73
2023/02/05 06:01:35;;;;;;;8.15;5.82;;;;;;;4.36;100.00;102325.38;5035156;28;20216;-72
2023/02/05 06:04:01;;;;;;;6.88;5.38;;;;;;;4.39;100.00;102330.72;5025420;28;20554;-73
2023/02/05 06:06:28;;;;;;;10.32;6.20;;;;;;;4.36;100.00;102327.13;5019738;28;20231;-73
2023/02/05 06:08:55;;;;;;;8.85;6.18;;;;;;;4.40;100.00;102339.63;5018746;28;20307;-73
2023/02/05 06:11:21;;;;;;;9.00;5.82;;;;;;;4.34;100.00;102331.53;5018135;28;20311;-73
2023/02/05 06:13:48;;;;;;;9.57;6.85;;;;;;;4.26;100.00;102331.47;5019806;28;20675;-74
2023/02/05 06:16:14;;;;;;;8.60;6.20;;;;;;;4.32;100.00;102328.88;5023404;28;20285;-74
2023/02/05 06:18:42;;;;;;;16.17;7.95;;;;;;;4.43;100.00;102314.72;5027537;28;20204;-73
2023/02/05 06:21:09;;;;;;;6.93;5.85;;;;;;;4.41;100.00;102317.41;5020731;28;20225;-74
2023/02/05 06:23:36;;;;;;;7.75;5.80;;;;;;;4.38;100.00;102312.03;5019414;28;20300;-75
2023/02/05 06:26:02;;;;;;;10.60;6.20;;;;;;;4.35;100.00;102304.88;5017455;28;20229;-74
2023/02/05 06:28:29;;;;;;;10.75;6.32;;;;;;;4.38;100.00;102298.69;5015825;28;20215;-74
2023/02/05 06:30:56;;;;;;;10.07;5.90;;;;;;;4.31;100.00;102297.72;5017655;28;20234;-74
2023/02/05 06:33:22;;;;;;;8.45;6.43;;;;;;;4.39;100.00;102289.81;5019378;28;20208;-74
2023/02/05 06:35:50;;;;;;;9.18;5.70;;;;;;;4.31;100.00;102292.38;5018645;28;20200;-75
2023/02/05 06:38:17;;;;;;;11.95;7.05;;;;;;;4.23;100.00;102299.44;5016013;28;20204;-76
2023/02/05 06:40:43;;;;;;;12.10;6.88;;;;;;;4.23;100.00;102295.84;5075186;22;20232;-76
2023/02/05 06:43:10;;;;;;;12.88;7.20;;;;;;;4.12;100.00;102295.75;5059931;28;20212;-73
2023/02/05 06:45:36;;;;;;;12.23;6.90;;;;;;;4.13;100.00;102295.75;5057740;28;20334;-75
2023/02/05 06:48:03;;;;;;;12.10;6.53;;;;;;;3.95;100.00;102293.75;5056252;28;20210;-75
2023/02/05 06:50:30;;;;;;;9.27;6.72;;;;;;;4.06;100.00;102296.56;5055275;28;20224;-75
2023/02/05 06:52:58;;;;;;;9.50;7.40;;;;;;;4.13;100.00;102298.41;5037372;28;20298;-74
2023/02/05 06:55:24;;;;;;;13.18;8.30;;;;;;;4.15;100.00;102302.00;5039538;28;20199;-74
2023/02/05 06:57:51;;;;;;;12.80;7.85;;;;;;;4.01;100.00;102311.63;5039205;28;20291;-76
2023/02/05 07:00:19;;;;;;;13.45;7.95;;;;;;;3.90;100.00;102313.25;5038192;28;20234;-73
2023/02/05 07:02:45;;;;;;;16.13;8.80;;;;;;;3.82;100.00;102315.81;5035277;28;20341;-74
2023/02/05 07:05:12;;;;;;;10.90;8.50;;;;;;;3.72;100.00;102327.22;5034036;28;20229;-72
2023/02/05 07:07:39;;;;;;;11.77;8.55;;;;;;;3.74;100.00;102321.03;5042116;28;20208;-72
2023/02/05 07:10:10;;;;;;;13.75;8.70;;;;;;;3.79;100.00;102329.09;5043626;28;20244;-75
2023/02/05 07:12:36;;;;;;;12.40;8.55;;;;;;;3.86;100.00;102327.41;5041796;28;20232;-74
2023/02/05 07:15:03;;;;;;;16.20;10.02;;;;;;;4.01;100.00;102335.59;5040383;28;20287;-76
2023/02/05 07:17:30;;;;;;;13.07;9.85;;;;;;;3.87;100.00;102330.09;5033437;28;20213;-74
2023/02/05 07:19:57;;;;;;;19.58;10.52;;;;;;;3.80;100.00;102332.66;5034684;28;20211;-74
2023/02/05 07:22:24;;;;;;;19.33;10.57;;;;;;;3.90;100.00;102321.25;5036429;28;20231;-76
2023/02/05 07:24:51;;;;;;;16.48;8.50;;;;;;;4.05;100.00;102315.19;5035173;28;20215;-75
2023/02/05 07:27:19;;;;;;;19.45;10.18;;;;;;;4.17;100.00;102307.34;5034572;28;20294;-75
2023/02/05 07:29:45;;;;;;;14.85;9.95;;;;;;;4.22;100.00;102299.41;5036393;28;20218;-74
2023/02/05 07:32:12;;;;;;;17.95;9.00;;;;;;;4.18;100.00;102270.03;5036820;28;20309;-74
2023/02/05 07:34:38;;;;;;;12.98;9.38;;;;;;;4.08;100.00;102257.47;5036169;28;20210;-73
2023/02/05 07:37:05;;;;;;;13.88;9.48;;;;;;;4.01;100.00;102250.28;5036170;28;20203;-73
2023/02/05 07:39:33;;;;;;;15.43;9.65;;;;;;;3.92;100.00;102247.50;5035451;28;20204;-74
2023/02/05 07:41:59;;;;;;;16.53;9.80;;;;;;;3.91;100.00;102241.28;5000443;28;1100510;-76
2023/02/05 07:44:28;;;;;;;15.82;10.82;;;;;;;3.77;100.00;102240.22;5039578;28;20445;-71
2023/02/05 07:46:54;;;;;;;20.10;10.90;;;;;;;3.83;100.00;102256.28;5038983;28;20225;-74
2023/02/05 07:49:21;;;;;;;20.60;10.63;;;;;;;3.75;100.00;102268.63;5037692;28;20700;-73
2023/02/05 07:51:47;;;;;;;21.85;12.30;;;;;;;3.68;100.00;102280.97;5037701;28;20314;-73
2023/02/05 07:54:14;;;;;;;24.90;15.07;;;;;;;3.72;100.00;102282.81;5036912;28;20196;-74
2023/02/05 07:56:41;;;;;;;21.73;13.45;;;;;;;3.66;100.00;102269.38;5039706;28;20202;-78
2023/02/05 07:59:08;;;;;;;18.42;11.88;;;;;;;3.79;100.00;102275.78;5035767;28;20582;-73
2023/02/05 08:01:36;;;;;;;16.40;11.85;;;;;;;3.94;100.00;102283.09;5038984;28;20224;-75
2023/02/05 08:04:02;;;;;;;20.25;11.20;;;;;;;3.87;100.00;102279.44;5040712;28;20211;-75
2023/02/05 08:06:29;;;;;;;23.42;12.35;;;;;;;3.96;100.00;102276.91;5040905;28;20228;-75
2023/02/05 08:08:55;;;;;;;16.52;11.45;;;;;;;3.85;100.00;102286.53;5040311;28;20201;-76
2023/02/05 08:11:22;;;;;;;19.30;13.13;;;;;;;3.89;100.00;102284.78;5041081;28;20223;-75
2023/02/05 08:13:49;;;;;;;22.67;11.55;;;;;;;3.89;100.00;102274.13;5043992;28;20200;-74
2023/02/05 08:16:16;;;;;;;17.65;12.20;;;;;;;3.95;100.00;102276.88;5040833;28;20200;-74
2023/02/05 08:18:47;;;;;;;16.60;12.82;;;;;;;3.95;100.00;102269.75;5040095;28;20233;-75
2023/02/05 08:21:14;;;;;;;17.85;11.07;;;;;;;3.96;100.00;102258.22;5039941;28;20270;-72
2023/02/05 08:23:40;;;;;;;18.85;11.55;;;;;;;4.00;100.00;102258.25;5039872;28;20298;-74
2023/02/05 08:26:07;;;;;;;61.55;44.08;;;;;;;4.20;100.00;102259.38;5039050;28;20288;-77
2023/02/05 08:28:34;;;;;;;20.77;13.50;;;;;;;4.17;100.00;102252.22;5038419;28;20276;-70
2023/02/05 08:31:00;;;;;;;26.98;15.88;;;;;;;4.11;100.00;102248.59;5039605;28;20227;-72
2023/02/05 08:33:27;;;;;;;20.05;12.52;;;;;;;4.00;100.00;102247.59;5038884;28;20670;-74
2023/02/05 08:35:57;;;;;;;17.85;12.27;;;;;;;4.03;100.00;102245.88;5039972;28;20196;-75
2023/02/05 08:38:23;;;;;;;20.17;12.80;;;;;;;4.02;100.00;102249.38;5038766;28;20209;-76
2023/02/05 08:40:51;;;;;;;20.60;13.00;;;;;;;3.98;100.00;102250.25;5040318;28;20294;-75
2023/02/05 08:43:17;;;;;;;24.45;12.57;;;;;;;4.15;100.00;102245.09;5043911;28;20203;-77
2023/02/05 08:45:46;;;;;;;21.13;12.43;;;;;;;4.10;100.00;102260.16;5044481;28;20279;-74
2023/02/05 08:48:13;;;;;;;18.42;11.60;;;;;;;4.08;100.00;102278.81;5040820;28;20574;-76
2023/02/05 08:50:39;;;;;;;20.15;12.88;;;;;;;3.96;100.00;102270.66;5040204;28;20215;-74
2023/02/05 08:53:07;;;;;;;21.48;12.65;;;;;;;3.94;100.00;102259.09;5037743;28;20215;-75
2023/02/05 08:55:34;;;;;;;16.85;12.23;;;;;;;3.80;100.00;102250.94;5039328;28;20284;-75
2023/02/05 08:58:00;;;;;;;25.83;13.98;;;;;;;3.87;100.00;102251.91;5040652;28;20208;-75
2023/02/05 09:00:27;;;;;;;20.48;13.50;;;;;;;4.05;100.00;102232.53;5038545;28;20705;-74
2023/02/05 09:02:54;;;;;;;24.15;14.55;;;;;;;4.03;100.00;102227.19;5038433;28;20218;-76
2023/02/05 09:05:22;;;;;;;18.35;13.20;;;;;;;4.00;100.00;102218.25;5039773;28;20203;-73
2023/02/05 09:07:49;;;;;;;20.70;14.48;;;;;;;4.14;100.00;102214.00;5040824;28;20265;-74
2023/02/05 09:10:17;;;;;;;25.20;14.23;;;;;;;4.16;100.00;102213.13;5039506;28;20315;-74
2023/02/05 09:12:47;;;;;;;18.02;13.90;;;;;;;4.35;100.00;102203.50;5040121;28;20209;-72
2023/02/05 09:15:14;;;;;;;18.13;13.80;;;;;;;4.32;100.00;102211.50;5040592;28;20666;-76
2023/02/05 09:17:40;;;;;;;20.90;13.32;;;;;;;4.45;100.00;102207.13;5041693;28;20670;-78
2023/02/05 09:20:08;;;;;;;18.60;13.10;;;;;;;4.41;100.00;102207.09;5041953;28;20266;-77
2023/02/05 09:22:34;;;;;;;19.30;12.93;;;;;;;4.33;100.00;102212.38;5040491;28;20204;-75
2023/02/05 09:25:01;;;;;;;24.73;13.95;;;;;;;4.38;100.00;102213.31;5043127;28;20212;-76
2023/02/05 09:27:29;;;;;;;19.45;14.15;;;;;;;4.31;100.00;102215.03;5038120;28;20220;-74
2023/02/05 09:29:56;;;;;;;43.20;27.20;;;;;;;4.39;100.00;102210.66;5041423;28;20697;-68
2023/02/05 09:32:23;;;;;;;53.05;31.77;;;;;;;4.64;100.00;102208.22;5036124;28;20215;-78
2023/02/05 09:34:50;;;;;;;21.02;15.05;;;;;;;4.26;100.00;102208.75;5042613;28;20248;-75
2023/02/05 09:37:19;;;;;;;22.48;14.68;;;;;;;4.37;100.00;102217.75;5054224;28;20260;-75
2023/02/05 09:39:45;;;;;;;22.50;14.00;;;;;;;4.45;100.00;102208.91;5048732;28;20641;-74
2023/02/05 09:42:19;;;;;;;22.48;13.98;;;;;;;4.35;100.00;102214.19;5041264;28;20240;-76
2023/02/05 09:45:00;;;;;;;22.42;14.82;;;;;;;4.32;100.00;102203.50;5044786;28;20685;-74
2023/02/05 09:47:33;;;;;;;26.60;14.90;;;;;;;4.31;100.00;102209.69;5044802;28;20320;-74
2023/02/05 09:50:08;;;;;;;23.27;14.20;;;;;;;4.30;100.00;102202.56;5044319;28;20255;-77
2023/02/05 09:52:38;;;;;;;24.63;15.80;;;;;;;4.14;100.00;102205.97;5042704;28;20208;-76
2023/02/05 09:55:17;;;;;;;25.65;15.02;;;;;;;4.25;100.00;102195.41;5049617;28;20275;-76
2023/02/05 09:57:44;;;;;;;23.77;15.52;;;;;;;4.25;100.00;102195.41;5050428;28;20264;-74
2023/02/05 10:00:21;;;;;;;22.35;15.50;;;;;;;4.24;100.00;102191.84;5051263;28;20219;-76
2023/02/05 10:02:53;;;;;;;23.00;15.98;;;;;;;4.46;100.00;102186.72;5051754;28;20204;-76
2023/02/05 10:05:23;;;;;;;25.33;16.25;;;;;;;4.45;100.00;102183.13;5050463;28;20244;-72
2023/02/05 10:07:56;;;;;;;23.20;15.95;;;;;;;4.40;100.00;102190.19;5045142;28;20229;-75
2023/02/05 10:10:26;;;;;;;24.10;16.38;;;;;;;4.27;100.00;102181.19;5039706;28;20315;-75
2023/02/05 10:13:24;;;;;;;24.70;15.05;;;;;;;4.21;100.00;102183.81;5037183;28;20227;-75
2023/02/05 10:16:09;;;;;;;33.78;18.02;;;;;;;4.43;100.00;102184.00;4973746;28;20237;-72
2023/02/05 10:18:48;;;;;;;24.92;16.45;;;;;;;4.77;100.00;102185.16;4972686;28;20204;-72
2023/02/05 10:21:25;;;;;;;28.70;15.48;;;;;;;4.79;100.00;102189.66;4971803;28;20226;-72
2023/02/05 10:24:14;;;;;;;23.83;15.40;;;;;;;4.76;100.00;102184.25;4974890;28;20618;-71
2023/02/05 10:26:46;;;;;;;22.35;15.40;;;;;;;5.23;100.00;102178.31;4975173;28;20227;-73
2023/02/05 10:29:21;;;;;;;25.80;15.45;;;;;;;5.18;100.00;102168.50;4973843;28;20775;-72
2023/02/05 10:31:59;;;;;;;22.92;16.25;;;;;;;5.49;100.00;102176.66;4974461;28;20222;-72
2023/02/05 10:34:42;;;;;;;24.70;15.93;;;;;;;5.27;100.00;102170.31;4974474;28;20256;-72
2023/02/05 10:37:15;;;;;;;28.63;17.05;;;;;;;5.28;100.00;102166.78;4971869;28;20289;-72
2023/02/05 10:39:42;;;;;;;25.27;14.90;;;;;;;4.94;100.00;102175.47;4971743;28;20212;-72
2023/02/05 10:42:22;;;;;;;22.80;16.23;;;;;;;5.38;100.00;102168.56;4971619;28;20249;-73
2023/02/05 10:44:52;;;;;;;23.48;14.80;;;;;;;5.09;100.00;102169.34;4976734;28;20205;-72
2023/02/05 10:47:48;;;;;;;21.48;14.43;;;;;;;5.11;100.00;102159.56;4974064;28;20654;-73
2023/02/05 10:50:22;;;;;;;26.52;15.57;;;;;;;5.30;100.00;102155.19;4972293;28;20300;-74
2023/02/05 10:52:49;;;;;;;26.05;15.05;;;;;;;5.34;100.00;102158.78;4982778;28;20208;-73
2023/02/05 10:55:16;;;;;;;22.63;15.35;;;;;;;5.41;100.00;102148.13;5013773;28;20212;-71
2023/02/05 10:57:42;;;;;;;28.48;15.98;;;;;;;5.00;100.00;102162.19;5013572;28;20216;-74
2023/02/05 11:00:15;;;;;;;43.40;28.13;;;;;;;5.09;100.00;102155.06;5018906;28;20225;-75
2023/02/05 11:02:47;;;;;;;25.70;18.40;;;;;;;5.22;100.00;102152.50;5019395;28;20205;-74
2023/02/05 11:05:21;;;;;;;22.42;16.02;;;;;;;5.32;100.00;102153.44;5023558;28;20194;-76
2023/02/05 11:07:49;;;;;;;20.65;15.15;;;;;;;5.27;100.00;102148.94;5021809;28;20269;-74
2023/02/05 11:10:18;;;;;;;26.98;15.80;;;;;;;5.10;100.00;102136.41;5021235;28;20225;-75
2023/02/05 11:12:46;;;;;;;23.25;15.25;;;;;;;4.93;100.00;102144.34;5021323;28;20197;-74
2023/02/05 11:15:22;;;;;;;24.88;15.68;;;;;;;4.89;100.00;102142.53;5036135;28;20196;-75
2023/02/05 11:17:58;;;;;;;25.45;14.93;;;;;;;5.11;100.00;102146.22;5040239;28;20295;-75
2023/02/05 11:20:29;;;;;;;21.20;15.32;;;;;;;5.09;100.00;102139.06;5038052;28;20599;-75
2023/02/05 11:23:08;;;;;;;22.33;15.35;;;;;;;5.17;100.00;102140.88;5038950;28;20193;-74
2023/02/05 11:25:35;;;;;;;25.00;16.80;;;;;;;5.23;100.00;102138.25;5038803;28;20219;-76
2023/02/05 11:28:03;;;;;;;24.10;15.65;;;;;;;5.31;100.00;102130.25;5038653;28;20229;-76
2023/02/05 11:30:34;;;;;;;28.00;17.10;;;;;;;5.19;100.00;102128.44;5037794;28;20224;-76